Time;durP1;ratioP1;P1;durP2;ratioP2;P2;SDS_P1;SDS_P2;PMS_P1;PMS_P2;Temp;Humidity;BMP_temperature;BMP_pressure;BME280_temperature;BME280_humidity;BME280_pressure;Samples;Min_cycle;Max_cycle;Signal;HPM_P1;HPM_P2
2022/03/10 00:01:21;;;;;;;18.80;13.50;;;2.60;99.90;;;;;;5121064;28;20454;-56
2022/03/10 00:03:55;;;;;;;19.83;13.30;;;2.60;99.90;;;;;;5097917;28;20564;-58
2022/03/10 00:06:34;;;;;;;18.70;12.77;;;2.50;99.90;;;;;;5120546;28;20464;-55
2022/03/10 00:09:12;;;;;;;17.63;12.37;;;2.50;99.90;;;;;;5121062;28;20454;-58
2022/03/10 00:11:42;;;;;;;18.60;13.20;;;2.50;99.90;;;;;;5120229;28;20495;-58
2022/03/10 00:14:10;;;;;;;18.93;13.53;;;2.40;99.90;;;;;;5100731;28;20774;-58
2022/03/10 00:16:41;;;;;;;16.17;11.90;;;2.50;99.90;;;;;;5100407;28;20816;-58
2022/03/10 00:19:08;;;;;;;18.50;13.10;;;2.30;99.90;;;;;;5099943;28;20491;-59
2022/03/10 00:21:39;;;;;;;26.93;14.70;;;2.30;99.90;;;;;;5120703;28;20875;-57
2022/03/10 00:24:11;;;;;;;16.90;13.37;;;2.20;99.90;;;;;;5119259;28;20467;-56
2022/03/10 00:26:41;;;;;;;16.90;12.80;;;2.20;99.90;;;;;;5117577;28;20468;-56
2022/03/10 00:29:10;;;;;;;14.60;12.03;;;2.10;99.90;;;;;;5110425;28;20485;-58
2022/03/10 00:31:37;;;;;;;18.53;13.07;;;2.10;99.90;;;;;;5119244;28;20491;-55
2022/03/10 00:34:04;;;;;;;19.77;14.00;;;2.00;99.90;;;;;;5120624;28;20503;-58
2022/03/10 00:36:34;;;;;;;19.07;13.33;;;2.00;99.90;;;;;;5120616;28;20895;-55
2022/03/10 00:39:01;;;;;;;17.87;12.67;;;1.90;99.90;;;;;;5103271;28;20463;-57
2022/03/10 00:41:29;;;;;;;19.83;12.93;;;1.90;99.90;;;;;;5099994;28;20460;-58
2022/03/10 00:44:02;;;;;;;19.30;12.63;;;1.90;99.90;;;;;;5101005;28;20459;-58
2022/03/10 00:46:31;;;;;;;19.87;14.00;;;1.90;99.90;;;;;;5100853;28;20461;-58
2022/03/10 00:49:01;;;;;;;17.43;12.90;;;1.90;99.90;;;;;;5117060;28;20765;-53
2022/03/10 00:51:28;;;;;;;22.40;12.50;;;1.90;99.90;;;;;;5120707;28;20542;-51
2022/03/10 00:53:57;;;;;;;17.93;14.20;;;1.90;99.90;;;;;;5120459;28;20473;-57
2022/03/10 00:56:26;;;;;;;17.87;13.90;;;1.90;99.90;;;;;;5120963;28;20465;-57
2022/03/10 00:58:57;;;;;;;19.27;13.60;;;1.90;99.90;;;;;;5120170;28;20467;-57
2022/03/10 01:01:32;;;;;;;17.53;12.40;;;2.00;99.90;;;;;;5120217;28;20883;-59
2022/03/10 01:04:11;;;;;;;19.90;13.70;;;1.90;99.90;;;;;;5119903;28;20515;-59
2022/03/10 01:06:42;;;;;;;19.90;13.40;;;1.90;99.90;;;;;;5120914;28;20474;-59
2022/03/10 01:09:09;;;;;;;19.07;13.97;;;1.90;99.90;;;;;;5111426;28;20467;-57
2022/03/10 01:11:39;;;;;;;17.90;13.27;;;1.80;99.90;;;;;;5099482;28;20496;-59
2022/03/10 01:14:10;;;;;;;19.30;13.50;;;1.70;99.90;;;;;;5099804;28;20464;-59
2022/03/10 01:16:37;;;;;;;16.77;12.57;;;1.60;99.90;;;;;;5100281;28;20462;-58
2022/03/10 01:19:04;;;;;;;21.47;14.60;;;1.70;99.90;;;;;;5101183;28;20487;-59
2022/03/10 01:21:36;;;;;;;19.33;14.00;;;1.70;99.90;;;;;;5099482;28;20513;-59
2022/03/10 01:24:06;;;;;;;20.90;13.90;;;1.70;99.90;;;;;;5105158;28;20493;-59
2022/03/10 01:26:33;;;;;;;17.10;13.20;;;1.70;99.90;;;;;;5120758;28;20880;-59
2022/03/10 01:29:00;;;;;;;24.20;13.77;;;1.70;99.90;;;;;;5119240;28;20463;-58
2022/03/10 01:31:35;;;;;;;17.87;12.93;;;1.80;99.90;;;;;;5118479;28;20858;-59
2022/03/10 01:34:02;;;;;;;18.73;14.00;;;1.70;99.90;;;;;;5118130;28;20843;-59
2022/03/10 01:36:37;;;;;;;18.87;14.00;;;1.70;99.90;;;;;;5112107;28;20466;-56
2022/03/10 01:39:04;;;;;;;15.43;12.47;;;1.60;99.90;;;;;;5099307;28;20462;-56
2022/03/10 01:41:34;;;;;;;21.07;13.90;;;1.60;99.90;;;;;;5113259;28;20456;-58
2022/03/10 01:44:04;;;;;;;19.57;13.80;;;1.60;99.90;;;;;;5118133;28;20463;-54
2022/03/10 01:46:32;;;;;;;17.97;13.73;;;1.60;99.90;;;;;;5117979;28;20462;-53
2022/03/10 01:51:54;;;;;;;15.73;12.50;;;1.40;99.90;;;;;;5097007;28;21039;-55
2022/03/10 01:54:24;;;;;;;25.87;14.57;;;1.40;99.90;;;;;;5118461;28;20468;-59
2022/03/10 01:56:53;;;;;;;17.90;13.23;;;1.30;99.90;;;;;;5097991;28;20463;-58
2022/03/10 01:59:21;;;;;;;21.73;15.53;;;1.30;99.90;;;;;;5097195;28;20471;-58
2022/03/10 02:01:53;;;;;;;18.77;13.87;;;1.20;99.90;;;;;;5107719;28;20492;-58
2022/03/10 02:04:22;;;;;;;16.67;13.13;;;1.10;99.90;;;;;;5117333;28;20457;-56
2022/03/10 02:06:49;;;;;;;18.27;13.80;;;1.10;99.90;;;;;;5110171;28;20459;-59
2022/03/10 02:12:01;;;;;;;20.30;13.20;;;1.00;99.90;;;;;;5105562;28;20472;-56
2022/03/10 02:17:22;;;;;;;20.30;14.53;;;1.00;99.90;;;;;;5098749;28;20757;-59
2022/03/10 02:19:52;;;;;;;19.20;15.33;;;0.90;99.90;;;;;;5104268;28;20486;-58
2022/03/10 02:22:22;;;;;;;19.97;13.33;;;1.00;99.90;;;;;;5118852;28;20561;-59
2022/03/10 02:24:52;;;;;;;20.27;14.87;;;0.90;99.90;;;;;;5114967;28;20478;-57
2022/03/10 02:27:24;;;;;;;20.90;13.87;;;0.80;99.90;;;;;;5098779;28;20881;-59
2022/03/10 02:29:53;;;;;;;18.87;13.87;;;0.70;99.90;;;;;;5100372;28;20452;-58
2022/03/10 02:32:27;;;;;;;22.00;14.23;;;0.70;99.90;;;;;;5116625;28;20501;-57
2022/03/10 02:34:54;;;;;;;18.60;11.60;;;0.60;99.90;;;;;;5116613;28;20456;-54
2022/03/10 02:37:28;;;;;;;18.50;13.10;;;0.70;99.90;;;;;;5110351;28;20460;-56
2022/03/10 02:39:58;;;;;;;16.13;12.60;;;0.70;99.90;;;;;;5097760;28;20513;-57
2022/03/10 02:42:25;;;;;;;16.30;11.83;;;0.80;99.90;;;;;;5098620;28;20500;-58
2022/03/10 02:44:52;;;;;;;23.90;13.10;;;0.70;99.90;;;;;;5098221;28;20885;-58
2022/03/10 02:47:21;;;;;;;19.37;13.23;;;0.70;99.90;;;;;;5098082;28;20464;-58
2022/03/10 02:49:48;;;;;;;21.47;13.63;;;0.70;99.90;;;;;;5107612;28;20452;-58
2022/03/10 02:52:16;;;;;;;20.23;12.90;;;0.70;99.90;;;;;;5119142;28;20492;-57
2022/03/10 02:54:45;;;;;;;16.87;11.53;;;0.80;99.90;;;;;;5122695;28;20508;-58
2022/03/10 02:57:23;;;;;;;17.30;13.10;;;0.80;99.90;;;;;;5121643;28;20465;-58
2022/03/10 02:59:52;;;;;;;17.50;13.40;;;0.80;99.90;;;;;;5122595;28;20490;-59
2022/03/10 03:02:19;;;;;;;18.47;14.10;;;0.70;99.90;;;;;;5110005;28;20525;-58
2022/03/10 03:04:50;;;;;;;24.47;15.80;;;0.70;99.90;;;;;;5102231;28;20469;-58
2022/03/10 03:07:19;;;;;;;19.03;13.90;;;0.80;99.90;;;;;;5101751;28;20439;-56
2022/03/10 03:09:47;;;;;;;16.03;12.77;;;0.70;99.90;;;;;;5102142;28;20439;-58
2022/03/10 03:12:20;;;;;;;19.27;13.67;;;0.60;99.90;;;;;;5109507;28;20496;-58
2022/03/10 03:14:52;;;;;;;18.00;13.10;;;0.60;99.90;;;;;;5122645;28;20776;-59
2022/03/10 03:17:19;;;;;;;18.30;12.90;;;0.60;99.90;;;;;;5120647;28;20460;-55
2022/03/10 03:19:46;;;;;;;19.20;13.60;;;0.50;99.90;;;;;;5116354;28;20530;-55
2022/03/10 03:22:18;;;;;;;16.63;12.97;;;0.40;99.90;;;;;;5105477;28;20451;-58
2022/03/10 03:24:54;;;;;;;17.90;12.67;;;0.40;99.90;;;;;;5122217;28;20459;-55
2022/03/10 03:27:21;;;;;;;18.13;12.50;;;0.40;99.90;;;;;;5103608;28;20469;-58
2022/03/10 03:29:50;;;;;;;20.10;14.03;;;0.40;99.90;;;;;;5102017;28;20460;-58
2022/03/10 03:32:21;;;;;;;17.20;12.37;;;0.30;99.90;;;;;;5111161;28;20494;-57
2022/03/10 03:34:48;;;;;;;14.97;12.17;;;0.40;99.90;;;;;;5114214;28;20520;-55
2022/03/10 03:37:15;;;;;;;19.07;12.70;;;0.40;99.90;;;;;;5120672;28;20551;-58
2022/03/10 03:39:42;;;;;;;18.40;13.10;;;0.30;99.90;;;;;;5100675;28;20522;-59
2022/03/10 03:42:15;;;;;;;22.83;12.83;;;0.30;99.90;;;;;;5101149;28;20448;-58
2022/03/10 03:44:51;;;;;;;19.37;12.40;;;0.30;99.90;;;;;;5118131;28;20455;-58
2022/03/10 03:47:18;;;;;;;18.03;12.57;;;0.30;99.90;;;;;;5120352;28;20508;-58
2022/03/10 03:49:50;;;;;;;20.70;12.50;;;0.40;99.90;;;;;;5119369;28;20515;-58
2022/03/10 03:52:20;;;;;;;16.80;11.83;;;0.30;99.90;;;;;;5101507;28;20548;-58
2022/03/10 03:54:47;;;;;;;16.83;11.97;;;0.40;99.90;;;;;;5113752;28;20969;-58
2022/03/10 03:57:16;;;;;;;19.00;12.80;;;0.30;99.90;;;;;;5120460;28;20813;-58
2022/03/10 03:59:45;;;;;;;17.80;12.30;;;0.30;99.90;;;;;;5120849;28;20832;-59
2022/03/10 04:02:14;;;;;;;18.10;13.13;;;0.30;99.90;;;;;;5117395;28;20464;-59
2022/03/10 04:04:43;;;;;;;18.70;12.57;;;0.20;99.90;;;;;;5110223;28;20461;-58
2022/03/10 04:07:14;;;;;;;18.30;11.90;;;0.20;99.90;;;;;;5100967;28;20465;-58
2022/03/10 04:09:44;;;;;;;19.33;13.60;;;0.10;99.90;;;;;;5100826;28;20462;-58
2022/03/10 04:12:12;;;;;;;16.40;12.27;;;0.10;99.90;;;;;;5100869;28;20486;-58
2022/03/10 04:14:43;;;;;;;17.83;12.13;;;0.10;99.90;;;;;;5105786;28;20435;-58
2022/03/10 04:17:15;;;;;;;17.63;12.87;;;0.00;99.90;;;;;;5120712;28;20459;-58
2022/03/10 04:19:46;;;;;;;16.73;11.50;;;-0.10;99.90;;;;;;5112576;28;20533;-54
2022/03/10 04:22:13;;;;;;;18.47;13.30;;;-0.10;99.90;;;;;;5099610;28;20438;-53
2022/03/10 04:24:40;;;;;;;16.87;11.97;;;-0.10;99.90;;;;;;5100247;28;20558;-57
2022/03/10 04:27:07;;;;;;;20.03;14.30;;;-0.10;99.90;;;;;;5110515;28;20456;-52
2022/03/10 04:29:36;;;;;;;19.63;14.23;;;-0.20;99.90;;;;;;5099683;28;20461;-53
2022/03/10 04:32:08;;;;;;;18.50;13.50;;;-0.20;99.90;;;;;;5101306;28;20549;-58
2022/03/10 04:34:38;;;;;;;16.90;12.87;;;0.00;99.90;;;;;;5119375;28;20532;-56
2022/03/10 04:37:05;;;;;;;24.43;14.63;;;0.00;99.90;;;;;;5119067;28;20819;-57
2022/03/10 04:39:35;;;;;;;18.73;13.00;;;0.00;99.90;;;;;;5107890;28;20440;-54
2022/03/10 04:42:10;;;;;;;17.23;13.70;;;0.00;99.90;;;;;;5099197;28;20456;-52
2022/03/10 04:44:40;;;;;;;22.03;12.37;;;0.00;99.90;;;;;;5099157;28;20473;-56
2022/03/10 04:47:08;;;;;;;17.73;12.77;;;0.00;99.90;;;;;;5112585;28;20857;-59
2022/03/10 04:49:40;;;;;;;16.63;12.33;;;-0.10;99.90;;;;;;5119490;28;20524;-54
2022/03/10 04:52:12;;;;;;;14.50;11.47;;;-0.10;99.90;;;;;;5104250;28;20481;-52
2022/03/10 04:54:39;;;;;;;20.70;12.90;;;-0.20;99.90;;;;;;5098392;28;20932;-56
2022/03/10 04:57:07;;;;;;;17.27;12.30;;;-0.20;99.90;;;;;;5113740;28;20438;-58
2022/03/10 04:59:34;;;;;;;16.80;12.53;;;-0.20;99.90;;;;;;5118936;28;20481;-55
2022/03/10 05:02:19;;;;;;;19.37;12.40;;;-0.30;99.90;;;;;;5098263;28;20460;-50
2022/03/10 05:04:47;;;;;;;18.87;13.67;;;-0.30;99.90;;;;;;5099212;28;20574;-52
2022/03/10 05:07:14;;;;;;;17.63;11.83;;;-0.30;99.90;;;;;;5110647;28;20810;-58
2022/03/10 05:09:44;;;;;;;15.10;11.60;;;-0.20;99.90;;;;;;5119333;28;20753;-54
2022/03/10 05:12:11;;;;;;;18.43;12.13;;;-0.30;99.90;;;;;;5118750;28;20509;-58
2022/03/10 05:14:38;;;;;;;19.93;12.87;;;-0.30;99.90;;;;;;5119281;28;20459;-58
2022/03/10 05:17:05;;;;;;;19.00;14.00;;;-0.20;99.90;;;;;;5110093;28;20460;-58
2022/03/10 05:19:41;;;;;;;16.07;12.13;;;-0.30;99.90;;;;;;5101350;28;20940;-58
2022/03/10 05:22:08;;;;;;;17.87;12.00;;;-0.20;99.90;;;;;;5104619;28;20442;-53
2022/03/10 05:24:35;;;;;;;16.00;11.80;;;-0.20;99.90;;;;;;5098563;28;20882;-58
2022/03/10 05:27:02;;;;;;;18.67;13.37;;;-0.30;99.90;;;;;;5099976;28;20802;-53
2022/03/10 05:29:36;;;;;;;16.90;12.37;;;-0.20;99.90;;;;;;5098101;28;20462;-55
2022/03/10 05:32:04;;;;;;;18.37;13.13;;;-0.20;99.90;;;;;;5098521;28;20866;-57
2022/03/10 05:34:37;;;;;;;17.87;12.27;;;-0.20;99.90;;;;;;5114028;28;20460;-55
2022/03/10 05:37:08;;;;;;;18.20;11.57;;;-0.20;99.90;;;;;;5117512;28;20471;-59
2022/03/10 05:39:37;;;;;;;18.10;11.77;;;-0.20;99.90;;;;;;5101817;28;20456;-56
2022/03/10 05:42:06;;;;;;;16.30;12.03;;;-0.20;99.90;;;;;;5118464;28;20467;-58
2022/03/10 05:44:35;;;;;;;18.60;11.87;;;-0.20;99.90;;;;;;5119154;28;20463;-58
2022/03/10 05:47:09;;;;;;;20.10;12.20;;;-0.20;99.90;;;;;;5119586;28;20460;-58
2022/03/10 05:49:39;;;;;;;17.87;12.83;;;-0.20;99.90;;;;;;5119012;28;20465;-58
2022/03/10 05:52:06;;;;;;;16.37;11.43;;;-0.20;99.90;;;;;;5118953;28;20493;-57
2022/03/10 05:54:33;;;;;;;17.57;12.00;;;-0.20;99.90;;;;;;5118037;28;20498;-58
2022/03/10 05:57:09;;;;;;;17.60;12.70;;;0.00;99.90;;;;;;5118149;28;20822;-53
2022/03/10 05:59:39;;;;;;;14.77;11.93;;;0.00;99.90;;;;;;5104015;28;20456;-53
2022/03/10 06:02:08;;;;;;;19.03;12.70;;;0.10;99.90;;;;;;5114530;28;20456;-59
2022/03/10 06:04:34;;;;;;;17.10;11.53;;;0.10;99.90;;;;;;5117567;28;20460;-54
2022/03/10 06:07:09;;;;;;;18.00;11.60;;;0.00;99.90;;;;;;5116191;28;20731;-59
2022/03/10 06:09:36;;;;;;;16.67;12.63;;;-0.10;99.90;;;;;;5111751;28;20462;-57
2022/03/10 06:12:03;;;;;;;17.80;12.20;;;-0.10;99.90;;;;;;5106973;28;20488;-58
2022/03/10 06:14:31;;;;;;;14.77;11.80;;;-0.10;99.90;;;;;;5112604;28;20518;-55
2022/03/10 06:16:58;;;;;;;15.93;11.20;;;0.10;99.90;;;;;;5117279;28;20459;-57
2022/03/10 06:19:29;;;;;;;17.63;12.13;;;0.20;99.90;;;;;;5113481;28;20492;-57
2022/03/10 06:21:56;;;;;;;46.00;24.53;;;0.20;99.90;;;;;;5104399;28;20461;-55
2022/03/10 06:24:36;;;;;;;90.57;39.70;;;0.30;99.90;;;;;;5104382;28;20551;-58
2022/03/10 06:27:08;;;;;;;61.20;28.60;;;0.40;99.90;;;;;;5108058;28;20908;-58
2022/03/10 06:29:35;;;;;;;26.57;15.10;;;0.40;99.90;;;;;;5106512;28;20459;-55
2022/03/10 06:32:11;;;;;;;19.73;13.67;;;0.70;99.90;;;;;;5105969;28;20498;-55
2022/03/10 06:34:38;;;;;;;15.97;11.90;;;0.80;99.90;;;;;;5107927;28;20456;-55
2022/03/10 06:37:06;;;;;;;14.83;11.90;;;0.90;99.90;;;;;;5106476;28;20584;-53
2022/03/10 06:39:48;;;;;;;19.07;11.57;;;1.00;99.90;;;;;;5104869;28;20919;-60
2022/03/10 06:42:18;;;;;;;15.47;11.30;;;1.20;99.90;;;;;;5107371;28;20812;-59
2022/03/10 06:44:49;;;;;;;16.20;11.73;;;1.30;99.90;;;;;;5104267;28;20470;-61
2022/03/10 06:47:19;;;;;;;15.10;11.40;;;1.40;99.90;;;;;;5104671;28;20486;-60
2022/03/10 06:49:46;;;;;;;18.77;11.33;;;1.50;99.90;;;;;;5106205;28;20893;-61
2022/03/10 06:52:13;;;;;;;20.87;14.20;;;1.50;99.90;;;;;;5102835;28;20510;-60
2022/03/10 06:54:47;;;;;;;19.40;13.80;;;1.60;99.90;;;;;;5107572;28;20457;-61
2022/03/10 06:57:14;;;;;;;24.63;13.80;;;1.50;99.90;;;;;;5109247;28;20956;-61
2022/03/10 06:59:49;;;;;;;18.13;13.13;;;1.50;99.90;;;;;;5109079;28;20475;-61
2022/03/10 07:02:19;;;;;;;19.07;13.33;;;1.50;99.90;;;;;;5117426;28;20465;-61
2022/03/10 07:04:46;;;;;;;19.70;13.47;;;1.70;99.90;;;;;;5117002;28;20495;-60
2022/03/10 07:07:16;;;;;;;22.70;11.53;;;1.90;99.90;;;;;;5116909;28;20462;-61
2022/03/10 07:09:46;;;;;;;17.43;11.27;;;2.10;99.90;;;;;;5115290;28;20519;-61
2022/03/10 07:12:29;;;;;;;20.83;13.60;;;2.40;99.90;;;;;;5116946;28;20493;-57
2022/03/10 07:15:00;;;;;;;18.70;12.37;;;2.60;99.90;;;;;;5114489;28;20524;-60
2022/03/10 07:17:31;;;;;;;18.17;12.87;;;2.90;99.90;;;;;;5115660;28;20433;-60
2022/03/10 07:20:01;;;;;;;27.30;15.73;;;3.20;99.90;;;;;;5104057;28;20858;-59
2022/03/10 07:22:34;;;;;;;27.47;18.13;;;3.60;99.90;;;;;;5095644;28;20752;-60
2022/03/10 07:25:06;;;;;;;30.27;20.83;;;4.00;99.90;;;;;;5094781;28;20626;-59
2022/03/10 07:27:43;;;;;;;26.33;18.37;;;4.40;99.90;;;;;;5100604;28;20483;-60
2022/03/10 07:30:14;;;;;;;16.80;12.00;;;4.80;99.90;;;;;;5108402;28;20467;-60
2022/03/10 07:32:41;;;;;;;17.17;12.63;;;5.10;99.90;;;;;;5108164;28;20948;-60
2022/03/10 07:35:11;;;;;;;14.67;11.63;;;5.50;99.90;;;;;;5111327;28;20464;-58
2022/03/10 07:37:46;;;;;;;14.80;11.70;;;6.00;99.90;;;;;;5115892;28;20862;-60
2022/03/10 07:40:17;;;;;;;15.70;11.80;;;6.40;99.90;;;;;;5111600;28;20430;-58
2022/03/10 07:42:47;;;;;;;18.27;12.40;;;6.80;99.90;;;;;;5116532;28;20460;-59
2022/03/10 07:45:14;;;;;;;16.77;13.07;;;7.20;99.90;;;;;;5116698;28;20500;-59
2022/03/10 07:47:50;;;;;;;14.70;12.63;;;7.50;99.90;;;;;;5106156;28;20896;-60
2022/03/10 07:50:17;;;;;;;16.57;13.20;;;7.90;99.90;;;;;;5116156;28;20456;-57
2022/03/10 07:52:56;;;;;;;15.97;12.27;;;8.20;99.90;;;;;;5120293;28;20494;-54
2022/03/10 07:55:26;;;;;;;16.77;14.13;;;8.30;99.90;;;;;;5109419;28;20459;-59
2022/03/10 07:57:55;;;;;;;18.73;11.63;;;8.70;99.90;;;;;;5101011;28;20750;-60
2022/03/10 08:00:25;;;;;;;15.83;12.83;;;8.80;99.90;;;;;;5103312;28;20468;-58
2022/03/10 08:02:54;;;;;;;19.30;14.10;;;8.80;99.90;;;;;;5122409;28;20459;-61
2022/03/10 08:05:27;;;;;;;20.73;13.10;;;9.00;99.90;;;;;;5120032;28;20463;-59
2022/03/10 08:08:01;;;;;;;15.93;13.93;;;9.20;99.90;;;;;;5122282;28;20467;-60
2022/03/10 08:10:31;;;;;;;19.70;13.80;;;9.40;99.90;;;;;;5122093;28;20455;-60
2022/03/10 08:13:01;;;;;;;15.03;13.43;;;9.60;99.90;;;;;;5104649;28;20845;-59
2022/03/10 08:15:30;;;;;;;18.70;14.40;;;9.80;99.90;;;;;;5100768;28;20585;-57
2022/03/10 08:17:59;;;;;;;14.73;13.10;;;9.90;99.90;;;;;;5100737;28;20464;-56
2022/03/10 08:20:29;;;;;;;18.20;13.27;;;10.10;99.90;;;;;;5100886;28;20492;-59
2022/03/10 08:23:00;;;;;;;17.97;14.20;;;10.40;99.90;;;;;;5105675;28;20482;-59
2022/03/10 08:25:29;;;;;;;20.17;15.70;;;10.60;99.90;;;;;;5120920;28;20463;-60
2022/03/10 08:27:56;;;;;;;19.80;14.57;;;10.90;99.90;;;;;;5118592;28;20459;-60
2022/03/10 08:30:26;;;;;;;19.47;15.30;;;10.90;99.90;;;;;;5120533;28;20896;-60
2022/03/10 08:32:55;;;;;;;24.07;15.00;;;11.00;99.90;;;;;;5118338;28;20952;-60
2022/03/10 08:35:25;;;;;;;18.87;16.00;;;11.20;99.90;;;;;;5110769;28;20459;-60
2022/03/10 08:37:55;;;;;;;19.23;15.33;;;11.40;99.90;;;;;;5111643;28;20527;-60
2022/03/10 08:40:32;;;;;;;24.73;19.63;;;11.60;99.90;;;;;;5119492;28;20460;-60
2022/03/10 08:43:11;;;;;;;19.00;16.13;;;11.90;99.90;;;;;;5099039;28;20854;-60
2022/03/10 08:45:46;;;;;;;19.33;16.10;;;12.10;99.90;;;;;;5119882;28;20463;-60
2022/03/10 08:48:19;;;;;;;31.90;21.70;;;12.40;99.90;;;;;;5117841;28;20912;-60
2022/03/10 08:50:46;;;;;;;24.50;18.93;;;12.60;99.90;;;;;;5105047;28;20507;-60
2022/03/10 08:53:17;;;;;;;19.50;15.10;;;12.80;99.90;;;;;;5099316;28;20496;-60
2022/03/10 08:55:48;;;;;;;22.97;18.57;;;12.90;99.90;;;;;;5115630;28;20512;-60
2022/03/10 08:58:25;;;;;;;27.90;20.23;;;12.80;99.90;;;;;;5117582;28;20470;-59
2022/03/10 09:00:54;;;;;;;21.77;15.87;;;12.60;99.90;;;;;;5119805;28;20460;-60
2022/03/10 09:03:25;;;;;;;20.10;16.67;;;12.60;99.90;;;;;;5119615;28;20512;-60
2022/03/10 09:05:54;;;;;;;23.30;18.07;;;12.90;99.90;;;;;;5104545;28;20890;-60
2022/03/10 09:08:25;;;;;;;22.70;19.53;;;12.90;99.90;;;;;;5098163;28;20460;-60
2022/03/10 09:10:54;;;;;;;23.10;17.60;;;13.00;99.90;;;;;;5119269;28;20968;-58
2022/03/10 09:13:22;;;;;;;24.00;18.47;;;13.10;99.90;;;;;;5118620;28;20521;-58
2022/03/10 09:15:49;;;;;;;22.77;17.30;;;12.90;99.90;;;;;;5108329;28;20529;-58
2022/03/10 09:18:20;;;;;;;23.00;18.00;;;13.10;99.90;;;;;;5099090;28;20464;-59
2022/03/10 09:20:54;;;;;;;22.73;18.47;;;13.40;99.90;;;;;;5112606;28;20532;-60
2022/03/10 09:23:21;;;;;;;21.77;17.10;;;13.70;99.90;;;;;;5119046;28;20459;-60
2022/03/10 09:25:48;;;;;;;24.63;21.20;;;13.90;99.90;;;;;;5117770;28;20459;-60
2022/03/10 09:28:19;;;;;;;22.70;18.37;;;14.30;99.90;;;;;;5118666;28;20802;-57
2022/03/10 09:30:46;;;;;;;27.93;21.00;;;14.10;99.90;;;;;;5118866;28;20818;-59
2022/03/10 09:33:18;;;;;;;25.07;18.80;;;14.50;99.90;;;;;;5119797;28;20928;-60
2022/03/10 09:35:45;;;;;;;24.67;17.73;;;14.90;99.90;;;;;;5117337;28;20463;-60
2022/03/10 09:38:12;;;;;;;25.00;19.23;;;15.10;99.90;;;;;;5099308;28;20468;-59
2022/03/10 09:40:39;;;;;;;26.37;20.67;;;15.20;99.90;;;;;;5099671;28;20918;-59
2022/03/10 09:43:06;;;;;;;25.43;20.50;;;15.30;99.90;;;;;;5099056;28;20873;-60
2022/03/10 09:45:38;;;;;;;25.43;19.73;;;15.50;99.90;;;;;;5099573;28;20464;-61
2022/03/10 09:48:07;;;;;;;23.07;19.40;;;15.90;99.90;;;;;;5110751;28;20865;-61
2022/03/10 09:50:34;;;;;;;26.70;19.90;;;16.10;99.90;;;;;;5099829;28;20460;-61
2022/03/10 09:53:08;;;;;;;25.80;20.37;;;16.30;99.90;;;;;;5098633;28;20549;-61
2022/03/10 09:55:35;;;;;;;24.17;18.70;;;16.10;99.90;;;;;;5098270;28;20472;-60
2022/03/10 09:58:07;;;;;;;25.70;20.27;;;15.80;99.90;;;;;;5111665;28;20464;-60
2022/03/10 10:00:36;;;;;;;29.93;22.00;;;15.80;99.90;;;;;;5119764;28;20495;-58
2022/03/10 10:03:05;;;;;;;25.20;18.90;;;15.70;99.90;;;;;;5114860;28;20463;-60
2022/03/10 10:05:41;;;;;;;23.97;18.50;;;15.60;99.90;;;;;;5117710;28;20875;-60
2022/03/10 10:08:11;;;;;;;27.50;20.17;;;15.80;99.90;;;;;;5106402;28;20460;-60
2022/03/10 10:10:42;;;;;;;24.47;19.27;;;15.60;99.90;;;;;;5097812;28;20460;-59
2022/03/10 10:13:10;;;;;;;24.80;19.30;;;15.50;99.90;;;;;;5097100;28;20458;-58
2022/03/10 10:15:43;;;;;;;26.17;19.40;;;15.90;99.90;;;;;;5097156;28;20559;-60
2022/03/10 10:18:23;;;;;;;22.67;17.77;;;16.30;99.90;;;;;;5103483;28;20459;-56
2022/03/10 10:20:56;;;;;;;23.83;17.50;;;16.30;99.90;;;;;;5102623;28;20491;-58
2022/03/10 10:23:29;;;;;;;21.33;17.60;;;16.00;99.90;;;;;;5107419;28;20459;-60
2022/03/10 10:25:58;;;;;;;18.73;16.73;;;16.10;99.90;;;;;;5115526;28;21021;-59
2022/03/10 10:28:31;;;;;;;20.10;16.97;;;16.30;99.90;;;;;;5113384;28;20460;-60
2022/03/10 10:31:04;;;;;;;21.87;15.43;;;16.20;99.90;;;;;;5104171;28;20542;-60
2022/03/10 10:33:49;;;;;;;18.43;15.57;;;15.90;99.90;;;;;;5117044;28;20491;-60
2022/03/10 10:36:18;;;;;;;16.67;14.87;;;15.90;99.90;;;;;;5117689;28;20756;-59
2022/03/10 10:38:49;;;;;;;18.13;15.50;;;15.90;99.90;;;;;;5112241;28;20463;-61
2022/03/10 10:41:23;;;;;;;19.00;14.67;;;16.30;99.90;;;;;;5116047;28;20463;-58
2022/03/10 10:44:00;;;;;;;19.53;14.93;;;16.20;99.90;;;;;;5112336;28;20467;-60
2022/03/10 10:46:33;;;;;;;15.60;14.00;;;16.30;99.90;;;;;;5098122;28;20460;-59
2022/03/10 10:49:15;;;;;;;17.53;15.43;;;16.00;99.90;;;;;;5113484;28;20463;-60
2022/03/10 10:51:44;;;;;;;20.30;15.87;;;16.30;99.90;;;;;;5117126;28;20524;-60
2022/03/10 10:54:23;;;;;;;18.23;15.63;;;16.70;99.90;;;;;;5109336;28;20974;-60
2022/03/10 10:56:55;;;;;;;16.60;14.00;;;17.00;99.90;;;;;;5119515;28;20486;-61
2022/03/10 10:59:41;;;;;;;15.67;14.07;;;17.30;99.90;;;;;;5118077;28;20486;-60
2022/03/10 11:02:16;;;;;;;16.90;15.10;;;17.20;99.90;;;;;;5098300;28;20947;-61
2022/03/10 11:04:49;;;;;;;17.17;15.37;;;17.90;99.90;;;;;;5097797;28;20456;-61
2022/03/10 11:07:20;;;;;;;19.23;15.10;;;17.80;99.90;;;;;;5110721;28;20451;-61
2022/03/10 11:09:51;;;;;;;16.17;14.10;;;17.60;99.90;;;;;;5117699;28;20463;-61
2022/03/10 11:12:19;;;;;;;19.40;15.27;;;17.40;99.90;;;;;;5118163;28;20451;-61
2022/03/10 11:14:47;;;;;;;17.30;15.50;;;17.40;99.90;;;;;;5116809;28;20575;-60
2022/03/10 11:17:19;;;;;;;17.77;14.50;;;17.20;99.90;;;;;;5102597;28;20460;-61
2022/03/10 11:19:54;;;;;;;18.13;15.10;;;17.50;99.90;;;;;;5106729;28;20463;-60
2022/03/10 11:22:33;;;;;;;17.47;14.37;;;17.80;99.90;;;;;;5119021;28;20635;-60
2022/03/10 11:25:18;;;;;;;17.33;14.97;;;17.30;99.90;;;;;;5116849;28;21049;-60
2022/03/10 11:28:04;;;;;;;17.13;14.67;;;17.40;99.90;;;;;;5120849;28;20459;-60
2022/03/10 11:30:34;;;;;;;15.33;13.60;;;17.70;99.90;;;;;;5121248;28;20468;-60
2022/03/10 11:33:12;;;;;;;16.10;13.40;;;17.80;99.90;;;;;;5119801;28;20482;-56
2022/03/10 11:35:41;;;;;;;15.63;13.47;;;18.30;99.90;;;;;;5118912;28;20504;-60
2022/03/10 11:38:11;;;;;;;13.80;12.43;;;18.70;99.90;;;;;;5110208;28;20479;-56
2022/03/10 11:40:54;;;;;;;15.47;13.87;;;18.70;99.90;;;;;;5113759;28;20460;-59
2022/03/10 11:43:34;;;;;;;16.10;12.87;;;18.60;99.90;;;;;;5101601;28;20467;-59
2022/03/10 11:46:23;;;;;;;14.03;12.63;;;18.50;99.90;;;;;;5104963;28;20471;-56
2022/03/10 11:49:09;;;;;;;14.90;11.90;;;18.30;99.90;;;;;;5120436;28;20892;-60
2022/03/10 11:51:59;;;;;;;13.90;12.43;;;18.80;99.90;;;;;;5119239;28;20455;-60
2022/03/10 11:54:33;;;;;;;12.17;10.97;;;19.20;99.90;;;;;;5104276;28;20928;-58
2022/03/10 11:57:05;;;;;;;11.97;10.80;;;19.00;99.90;;;;;;5118472;28;20773;-60
2022/03/10 12:00:02;;;;;;;12.70;11.10;;;18.90;99.90;;;;;;5119915;28;20508;-59
2022/03/10 12:02:43;;;;;;;12.37;11.17;;;18.60;99.90;;;;;;5076781;28;20485;-60
2022/03/10 12:05:17;;;;;;;12.93;10.43;;;19.00;99.90;;;;;;5112078;28;20502;-59
2022/03/10 12:07:57;;;;;;;13.70;11.70;;;19.10;99.90;;;;;;5112317;28;20820;-59
2022/03/10 12:10:41;;;;;;;12.00;10.80;;;19.60;99.90;;;;;;5116075;28;20456;-59
2022/03/10 12:13:39;;;;;;;10.33;9.23;;;19.70;99.90;;;;;;5113601;28;20928;-60
2022/03/10 12:16:07;;;;;;;10.47;9.53;;;19.20;99.90;;;;;;5106188;28;20544;-60
2022/03/10 12:18:56;;;;;;;12.27;10.97;;;19.50;99.90;;;;;;5098116;28;20452;-57
2022/03/10 12:21:31;;;;;;;13.10;9.87;;;19.50;99.90;;;;;;5107453;28;20524;-60
2022/03/10 12:24:00;;;;;;;9.33;8.17;;;19.60;99.90;;;;;;5117050;28;20938;-60
2022/03/10 12:26:35;;;;;;;8.87;8.07;;;19.70;99.90;;;;;;5114398;28;20913;-60
2022/03/10 12:29:09;;;;;;;10.13;8.43;;;19.50;99.90;;;;;;5112743;28;20459;-60
2022/03/10 12:31:39;;;;;;;8.47;7.77;;;19.10;99.90;;;;;;5118060;28;20456;-57
2022/03/10 12:34:13;;;;;;;8.93;8.13;;;19.10;99.90;;;;;;5117267;28;20492;-60
2022/03/10 12:36:49;;;;;;;8.23;6.60;;;19.00;99.90;;;;;;5118024;28;20464;-54
2022/03/10 12:39:17;;;;;;;7.77;6.97;;;18.80;99.90;;;;;;5116926;28;20776;-52
2022/03/10 12:41:50;;;;;;;7.10;6.37;;;19.00;99.90;;;;;;5119841;28;20781;-59
2022/03/10 12:44:21;;;;;;;8.57;7.80;;;18.70;99.90;;;;;;5113510;28;20530;-57
2022/03/10 12:46:52;;;;;;;7.93;7.13;;;18.60;99.90;;;;;;5099208;28;20462;-59
2022/03/10 12:49:34;;;;;;;8.80;7.10;;;18.60;99.90;;;;;;5098399;28;20460;-57
2022/03/10 12:52:13;;;;;;;7.97;7.27;;;18.60;99.90;;;;;;5098605;28;20456;-55
2022/03/10 12:54:43;;;;;;;7.83;7.07;;;18.60;99.90;;;;;;5098366;28;20488;-57
2022/03/10 12:57:17;;;;;;;8.43;7.63;;;18.50;99.90;;;;;;5098742;28;20898;-58
2022/03/10 12:59:49;;;;;;;8.60;7.80;;;18.50;99.90;;;;;;5099222;28;20513;-59
2022/03/10 13:02:22;;;;;;;8.20;7.40;;;18.30;99.90;;;;;;5098825;28;21025;-58